Sankoumaru 31 — JD2200 — position and weather

sailwx.info

Track history (hours):
 
Tides and Currents Weather Stations Pressure Air Temp Water Temp Dewpoint Dewpoint Depression Visibility Wind Speed Wind Dir Waves Ship Positions

Sankoumaru 31

Last reported at 2014-Aug-24 18:22 UTC. Time now 2014-Aug-31 08:36 UTC.
Position N 34°51' E 139°42'.

Length 75 m; draft 5 m.

Type: Cargo ship. MMSI: 431501842.

Date/timePositionNaut miles runAvg speedWind from/ knotsBaromVisibWave heightAir tempDewpointWater temp
2014-Aug-24 18:22N 34°51' E 139°42'1310.3
2014-Aug-24 17:07N 34°53' E 139°57'910.3
2014-Aug-24 16:17N 34°58' E 140°06'65 9.6
2014-Aug-24 09:33N 35°54' E 140°47'6 6.0
2014-Aug-24 08:33N 35°56' E 140°40'0 0.1
2014-Aug-24 07:30N 35°56' E 140°40'0 0.0
2014-Aug-24 04:17N 35°56' E 140°40'0 0.1
2014-Aug-24 03:23N 35°56' E 140°40'0 0.1
2014-Aug-24 02:29N 35°56' E 140°40'0 0.0
2014-Aug-23 23:29N 35°56' E 140°40'0 0.1
2014-Aug-23 22:29N 35°56' E 140°40'0 0.1
2014-Aug-23 20:29N 35°56' E 140°40'0 0.0
2014-Aug-23 19:32N 35°56' E 140°40'0 0.0
2014-Aug-23 03:32N 35°56' E 140°40'0 0.0
2014-Aug-23 02:11N 35°56' E 140°40'0 0.0
2014-Aug-22 23:29N 35°56' E 140°40'0 0.0
2014-Aug-22 22:23N 35°56' E 140°40'0 0.0
2014-Aug-22 21:32N 35°56' E 140°40'0 0.0
2014-Aug-22 20:23N 35°56' E 140°40'0 0.0
2014-Aug-22 19:32N 35°56' E 140°40'0 0.0
2014-Aug-22 18:26N 35°56' E 140°40'0 0.0
2014-Aug-22 17:33N 35°56' E 140°40'27 0.7
2014-Aug-21 03:28N 35°29' E 140°43'1512.1
2014-Aug-21 02:12N 35°16' E 140°31'2111.7
2014-Aug-21 00:24N 35°02' E 140°13'1112.6
2014-Aug-20 23:33N 34°56' E 140°02'1312.5
2014-Aug-20 22:33N 34°51' E 139°48'1312.4
2014-Aug-20 21:32N 34°50' E 139°33'  
2014-Aug-17 08:24N 34°39' E 139°02'2010.8
2014-Aug-17 06:33N 34°49' E 139°23'1111.1
2014-Aug-17 05:32N 34°51' E 139°36'1711.9
2014-Aug-17 04:07N 34°53' E 139°57'812.0
2014-Aug-17 03:26N 34°57' E 140°05'2611.1
2014-Aug-17 01:06N 35°14' E 140°29'45 9.8
2014-Aug-16 20:32N 35°58' E 140°43'3 3.0
2014-Aug-16 19:31N 35°56' E 140°40'0 0.0
2014-Aug-16 17:25N 35°56' E 140°40'0 0.1
2014-Aug-16 16:31N 35°56' E 140°40'0 0.0
2014-Aug-16 13:13N 35°56' E 140°40'0 0.1
2014-Aug-16 10:19N 35°56' E 140°40'0 0.0
2014-Aug-16 09:19N 35°56' E 140°40'0 0.0
2014-Aug-15 13:25N 35°56' E 140°40'0 0.0
2014-Aug-15 05:25N 35°56' E 140°40'0 0.0
2014-Aug-15 04:19N 35°56' E 140°40'0 0.0
2014-Aug-15 03:19N 35°56' E 140°40'0 0.0
2014-Aug-15 02:31N 35°56' E 140°40'0 0.0
2014-Aug-15 01:25N 35°56' E 140°40'0 0.1
2014-Aug-14 21:31N 35°56' E 140°40'0 0.0
2014-Aug-14 19:25N 35°56' E 140°40'  
Track history (hours):
 
Tides and Currents Weather Stations Pressure Air Temp Water Temp Dewpoint Dewpoint Depression Visibility Wind Speed Wind Dir Waves Ship Positions

Sankoumaru 31

Last reported at 2014-Aug-24 18:22 UTC. Time now 2014-Aug-31 08:36 UTC.
Position N 34°51' E 139°42'.

Length 75 m; draft 5 m.

Type: Cargo ship. MMSI: 431501842.

Date/timePositionNaut miles runAvg speedWind from/ knotsBaromVisibWave heightAir tempDewpointWater temp
2014-Aug-24 18:22N 34°51' E 139°42'1310.3
2014-Aug-24 17:07N 34°53' E 139°57'910.3
2014-Aug-24 16:17N 34°58' E 140°06'65 9.6
2014-Aug-24 09:33N 35°54' E 140°47'6 6.0
2014-Aug-24 08:33N 35°56' E 140°40'0 0.1
2014-Aug-24 07:30N 35°56' E 140°40'0 0.0
2014-Aug-24 04:17N 35°56' E 140°40'0 0.1
2014-Aug-24 03:23N 35°56' E 140°40'0 0.1
2014-Aug-24 02:29N 35°56' E 140°40'0 0.0
2014-Aug-23 23:29N 35°56' E 140°40'0 0.1
2014-Aug-23 22:29N 35°56' E 140°40'0 0.1
2014-Aug-23 20:29N 35°56' E 140°40'0 0.0
2014-Aug-23 19:32N 35°56' E 140°40'0 0.0
2014-Aug-23 03:32N 35°56' E 140°40'0 0.0
2014-Aug-23 02:11N 35°56' E 140°40'0 0.0
2014-Aug-22 23:29N 35°56' E 140°40'0 0.0
2014-Aug-22 22:23N 35°56' E 140°40'0 0.0
2014-Aug-22 21:32N 35°56' E 140°40'0 0.0
2014-Aug-22 20:23N 35°56' E 140°40'0 0.0
2014-Aug-22 19:32N 35°56' E 140°40'0 0.0
2014-Aug-22 18:26N 35°56' E 140°40'0 0.0
2014-Aug-22 17:33N 35°56' E 140°40'27 0.7
2014-Aug-21 03:28N 35°29' E 140°43'1512.1
2014-Aug-21 02:12N 35°16' E 140°31'2111.7
2014-Aug-21 00:24N 35°02' E 140°13'1112.6
2014-Aug-20 23:33N 34°56' E 140°02'1312.5
2014-Aug-20 22:33N 34°51' E 139°48'1312.4
2014-Aug-20 21:32N 34°50' E 139°33'  
2014-Aug-17 08:24N 34°39' E 139°02'2010.8
2014-Aug-17 06:33N 34°49' E 139°23'1111.1
2014-Aug-17 05:32N 34°51' E 139°36'1711.9
2014-Aug-17 04:07N 34°53' E 139°57'812.0
2014-Aug-17 03:26N 34°57' E 140°05'2611.1
2014-Aug-17 01:06N 35°14' E 140°29'45 9.8
2014-Aug-16 20:32N 35°58' E 140°43'3 3.0
2014-Aug-16 19:31N 35°56' E 140°40'0 0.0
2014-Aug-16 17:25N 35°56' E 140°40'0 0.1
2014-Aug-16 16:31N 35°56' E 140°40'0 0.0
2014-Aug-16 13:13N 35°56' E 140°40'0 0.1
2014-Aug-16 10:19N 35°56' E 140°40'0 0.0
2014-Aug-16 09:19N 35°56' E 140°40'0 0.0
2014-Aug-15 13:25N 35°56' E 140°40'0 0.0
2014-Aug-15 05:25N 35°56' E 140°40'0 0.0
2014-Aug-15 04:19N 35°56' E 140°40'0 0.0
2014-Aug-15 03:19N 35°56' E 140°40'0 0.0
2014-Aug-15 02:31N 35°56' E 140°40'0 0.0
2014-Aug-15 01:25N 35°56' E 140°40'0 0.1
2014-Aug-14 21:31N 35°56' E 140°40'0 0.0
2014-Aug-14 19:25N 35°56' E 140°40'  

Dump ship's entire track history